sensor_id;sensor_type;location;lat;lon;timestamp;P1;durP1;ratioP1;P2;durP2;ratioP2
32946;SDS011;54465;51.230;22.504;2023-04-01T00:02:35;11.90;;;6.00;;
32946;SDS011;54465;51.230;22.504;2023-04-01T00:07:36;10.25;;;5.80;;
32946;SDS011;54465;51.230;22.504;2023-04-01T00:12:37;12.93;;;6.18;;
32946;SDS011;54465;51.230;22.504;2023-04-01T00:17:38;10.40;;;5.97;;
32946;SDS011;54465;51.230;22.504;2023-04-01T00:22:38;9.98;;;6.40;;
32946;SDS011;54465;51.230;22.504;2023-04-01T00:27:39;11.13;;;6.38;;
32946;SDS011;54465;51.230;22.504;2023-04-01T00:32:40;12.00;;;5.97;;
32946;SDS011;54465;51.230;22.504;2023-04-01T00:37:40;12.15;;;5.88;;
32946;SDS011;54465;51.230;22.504;2023-04-01T00:42:41;13.73;;;6.15;;
32946;SDS011;54465;51.230;22.504;2023-04-01T00:47:41;10.10;;;5.47;;
32946;SDS011;54465;51.230;22.504;2023-04-01T00:52:42;11.95;;;6.07;;
32946;SDS011;54465;51.230;22.504;2023-04-01T00:57:42;12.05;;;5.20;;
32946;SDS011;54465;51.230;22.504;2023-04-01T01:02:44;10.05;;;5.50;;
32946;SDS011;54465;51.230;22.504;2023-04-01T01:18:27;11.48;;;5.72;;
32946;SDS011;54465;51.230;22.504;2023-04-01T01:39:41;11.35;;;5.97;;
32946;SDS011;54465;51.230;22.504;2023-04-01T01:44:44;12.90;;;5.47;;
32946;SDS011;54465;51.230;22.504;2023-04-01T01:49:46;11.48;;;6.13;;
32946;SDS011;54465;51.230;22.504;2023-04-01T01:54:54;12.70;;;5.35;;
32946;SDS011;54465;51.230;22.504;2023-04-01T02:00:09;11.90;;;6.05;;
32946;SDS011;54465;51.230;22.504;2023-04-01T02:05:16;11.83;;;6.07;;
32946;SDS011;54465;51.230;22.504;2023-04-01T02:10:19;10.30;;;5.82;;
32946;SDS011;54465;51.230;22.504;2023-04-01T02:15:20;9.98;;;6.00;;
32946;SDS011;54465;51.230;22.504;2023-04-01T02:20:23;11.15;;;5.82;;
32946;SDS011;54465;51.230;22.504;2023-04-01T02:25:25;10.63;;;5.35;;
32946;SDS011;54465;51.230;22.504;2023-04-01T02:30:28;10.23;;;5.75;;
32946;SDS011;54465;51.230;22.504;2023-04-01T02:35:29;9.52;;;5.78;;
32946;SDS011;54465;51.230;22.504;2023-04-01T02:40:40;10.30;;;5.10;;
32946;SDS011;54465;51.230;22.504;2023-04-01T02:45:42;11.65;;;5.97;;
32946;SDS011;54465;51.230;22.504;2023-04-01T02:50:43;10.77;;;5.40;;
32946;SDS011;54465;51.230;22.504;2023-04-01T02:55:43;13.95;;;6.15;;
32946;SDS011;54465;51.230;22.504;2023-04-01T03:00:45;12.63;;;5.57;;
32946;SDS011;54465;51.230;22.504;2023-04-01T03:05:45;10.50;;;5.45;;
32946;SDS011;54465;51.230;22.504;2023-04-01T03:10:46;13.48;;;5.82;;
32946;SDS011;54465;51.230;22.504;2023-04-01T03:15:46;9.77;;;5.60;;
32946;SDS011;54465;51.230;22.504;2023-04-01T03:20:48;11.38;;;5.40;;
32946;SDS011;54465;51.230;22.504;2023-04-01T03:25:49;15.13;;;5.30;;
32946;SDS011;54465;51.230;22.504;2023-04-01T03:30:49;12.45;;;6.28;;
32946;SDS011;54465;51.230;22.504;2023-04-01T03:35:50;11.13;;;6.32;;
32946;SDS011;54465;51.230;22.504;2023-04-01T03:40:53;11.57;;;5.78;;
32946;SDS011;54465;51.230;22.504;2023-04-01T03:45:53;12.95;;;5.47;;
32946;SDS011;54465;51.230;22.504;2023-04-01T03:50:55;12.70;;;6.07;;
32946;SDS011;54465;51.230;22.504;2023-04-01T03:55:56;17.80;;;5.95;;
32946;SDS011;54465;51.230;22.504;2023-04-01T04:00:56;11.05;;;6.40;;
32946;SDS011;54465;51.230;22.504;2023-04-01T04:05:57;10.85;;;6.13;;
32946;SDS011;54465;51.230;22.504;2023-04-01T04:10:57;10.82;;;6.18;;
32946;SDS011;54465;51.230;22.504;2023-04-01T04:15:58;10.93;;;6.07;;
32946;SDS011;54465;51.230;22.504;2023-04-01T04:20:59;11.32;;;6.80;;
32946;SDS011;54465;51.230;22.504;2023-04-01T04:26:01;13.45;;;6.07;;
32946;SDS011;54465;51.230;22.504;2023-04-01T04:31:03;9.43;;;6.18;;
32946;SDS011;54465;51.230;22.504;2023-04-01T04:36:09;10.60;;;6.05;;
32946;SDS011;54465;51.230;22.504;2023-04-01T04:41:10;12.50;;;6.30;;
32946;SDS011;54465;51.230;22.504;2023-04-01T04:46:12;11.32;;;6.38;;
32946;SDS011;54465;51.230;22.504;2023-04-01T04:51:14;10.02;;;5.68;;
32946;SDS011;54465;51.230;22.504;2023-04-01T04:56:19;12.43;;;5.82;;
32946;SDS011;54465;51.230;22.504;2023-04-01T05:01:27;11.77;;;5.65;;
32946;SDS011;54465;51.230;22.504;2023-04-01T05:06:28;13.32;;;6.22;;
32946;SDS011;54465;51.230;22.504;2023-04-01T05:11:30;11.80;;;5.90;;
32946;SDS011;54465;51.230;22.504;2023-04-01T05:16:30;11.45;;;5.68;;
32946;SDS011;54465;51.230;22.504;2023-04-01T05:21:33;10.93;;;5.88;;
32946;SDS011;54465;51.230;22.504;2023-04-01T05:26:33;12.82;;;6.10;;
32946;SDS011;54465;51.230;22.504;2023-04-01T05:31:34;9.68;;;5.82;;
32946;SDS011;54465;51.230;22.504;2023-04-01T05:36:35;11.23;;;6.68;;
32946;SDS011;54465;51.230;22.504;2023-04-01T05:41:37;10.48;;;5.95;;
32946;SDS011;54465;51.230;22.504;2023-04-01T05:46:38;9.05;;;5.10;;
32946;SDS011;54465;51.230;22.504;2023-04-01T05:51:59;10.40;;;5.55;;
32946;SDS011;54465;51.230;22.504;2023-04-01T05:57:00;8.35;;;4.80;;
32946;SDS011;54465;51.230;22.504;2023-04-01T06:02:01;8.98;;;5.15;;
32946;SDS011;54465;51.230;22.504;2023-04-01T06:07:05;8.27;;;5.15;;
32946;SDS011;54465;51.230;22.504;2023-04-01T06:49:56;8.60;;;4.68;;
32946;SDS011;54465;51.230;22.504;2023-04-01T06:55:32;11.68;;;5.13;;
32946;SDS011;54465;51.230;22.504;2023-04-01T07:00:53;8.35;;;5.35;;
32946;SDS011;54465;51.230;22.504;2023-04-01T07:05:57;8.02;;;5.10;;
32946;SDS011;54465;51.230;22.504;2023-04-01T07:11:04;8.82;;;5.65;;
32946;SDS011;54465;51.230;22.504;2023-04-01T07:21:34;7.40;;;4.63;;
32946;SDS011;54465;51.230;22.504;2023-04-01T07:26:54;6.40;;;4.50;;
32946;SDS011;54465;51.230;22.504;2023-04-01T07:32:09;7.00;;;5.00;;
32946;SDS011;54465;51.230;22.504;2023-04-01T07:53:36;6.03;;;3.63;;
32946;SDS011;54465;51.230;22.504;2023-04-01T08:09:09;7.68;;;4.13;;
32946;SDS011;54465;51.230;22.504;2023-04-01T08:14:33;4.20;;;3.03;;
32946;SDS011;54465;51.230;22.504;2023-04-01T08:25:28;3.35;;;2.85;;
32946;SDS011;54465;51.230;22.504;2023-04-01T08:30:38;4.68;;;2.83;;
32946;SDS011;54465;51.230;22.504;2023-04-01T09:29:29;1.67;;;1.38;;
32946;SDS011;54465;51.230;22.504;2023-04-01T09:34:39;1.83;;;1.10;;
32946;SDS011;54465;51.230;22.504;2023-04-01T09:39:44;2.22;;;1.02;;
32946;SDS011;54465;51.230;22.504;2023-04-01T10:01:29;3.97;;;1.80;;
32946;SDS011;54465;51.230;22.504;2023-04-01T10:34:34;6.70;;;3.03;;
32946;SDS011;54465;51.230;22.504;2023-04-01T10:50:57;3.88;;;2.58;;
32946;SDS011;54465;51.230;22.504;2023-04-01T10:56:22;4.45;;;2.70;;
32946;SDS011;54465;51.230;22.504;2023-04-01T11:07:49;3.38;;;2.08;;
32946;SDS011;54465;51.230;22.504;2023-04-01T11:24:24;5.50;;;2.60;;
32946;SDS011;54465;51.230;22.504;2023-04-01T11:40:59;3.08;;;2.22;;
32946;SDS011;54465;51.230;22.504;2023-04-01T12:18:24;1.00;;;0.63;;
32946;SDS011;54465;51.230;22.504;2023-04-01T12:23:41;1.75;;;0.98;;
32946;SDS011;54465;51.230;22.504;2023-04-01T12:45:29;1.88;;;1.02;;
32946;SDS011;54465;51.230;22.504;2023-04-01T12:50:39;2.50;;;0.95;;
32946;SDS011;54465;51.230;22.504;2023-04-01T12:56:04;3.90;;;1.50;;
32946;SDS011;54465;51.230;22.504;2023-04-01T13:23:06;2.05;;;1.42;;
32946;SDS011;54465;51.230;22.504;2023-04-01T13:44:11;3.30;;;1.73;;
32946;SDS011;54465;51.230;22.504;2023-04-01T14:05:54;3.63;;;2.13;;
32946;SDS011;54465;51.230;22.504;2023-04-01T14:42:59;3.67;;;2.33;;
32946;SDS011;54465;51.230;22.504;2023-04-01T14:48:23;2.88;;;1.88;;
32946;SDS011;54465;51.230;22.504;2023-04-01T14:58:58;4.72;;;2.08;;
32946;SDS011;54465;51.230;22.504;2023-04-01T15:09:44;3.65;;;1.98;;
32946;SDS011;54465;51.230;22.504;2023-04-01T15:15:16;3.75;;;1.92;;
32946;SDS011;54465;51.230;22.504;2023-04-01T15:46:48;7.63;;;3.70;;
32946;SDS011;54465;51.230;22.504;2023-04-01T15:57:20;6.18;;;2.50;;
32946;SDS011;54465;51.230;22.504;2023-04-01T16:23:59;8.32;;;4.30;;
32946;SDS011;54465;51.230;22.504;2023-04-01T16:29:09;12.18;;;4.40;;
32946;SDS011;54465;51.230;22.504;2023-04-01T16:39:41;6.20;;;2.97;;
32946;SDS011;54465;51.230;22.504;2023-04-01T16:49:52;7.45;;;3.60;;
32946;SDS011;54465;51.230;22.504;2023-04-01T16:54:58;9.30;;;3.80;;
32946;SDS011;54465;51.230;22.504;2023-04-01T17:05:39;5.22;;;2.17;;
32946;SDS011;54465;51.230;22.504;2023-04-01T17:26:46;21.30;;;8.98;;
32946;SDS011;54465;51.230;22.504;2023-04-01T17:32:08;11.90;;;6.38;;
32946;SDS011;54465;51.230;22.504;2023-04-01T17:37:49;13.13;;;6.00;;
32946;SDS011;54465;51.230;22.504;2023-04-01T17:42:58;13.57;;;5.85;;
32946;SDS011;54465;51.230;22.504;2023-04-01T17:53:44;8.43;;;4.15;;
32946;SDS011;54465;51.230;22.504;2023-04-01T17:58:46;9.88;;;4.70;;
32946;SDS011;54465;51.230;22.504;2023-04-01T18:04:08;8.95;;;6.15;;
32946;SDS011;54465;51.230;22.504;2023-04-01T18:25:28;17.63;;;7.25;;
32946;SDS011;54465;51.230;22.504;2023-04-01T18:30:34;10.35;;;5.85;;
32946;SDS011;54465;51.230;22.504;2023-04-01T18:35:47;13.13;;;5.85;;
32946;SDS011;54465;51.230;22.504;2023-04-01T18:41:08;11.27;;;6.00;;
32946;SDS011;54465;51.230;22.504;2023-04-01T18:56:39;22.65;;;8.68;;
32946;SDS011;54465;51.230;22.504;2023-04-01T19:01:51;20.45;;;8.25;;
32946;SDS011;54465;51.230;22.504;2023-04-01T19:06:54;17.15;;;8.02;;
32946;SDS011;54465;51.230;22.504;2023-04-01T19:17:26;15.07;;;7.65;;
32946;SDS011;54465;51.230;22.504;2023-04-01T19:27:50;22.57;;;10.40;;
32946;SDS011;54465;51.230;22.504;2023-04-01T19:48:56;8.77;;;4.95;;
32946;SDS011;54465;51.230;22.504;2023-04-01T19:53:59;7.40;;;4.28;;
32946;SDS011;54465;51.230;22.504;2023-04-01T19:59:19;10.52;;;4.90;;
32946;SDS011;54465;51.230;22.504;2023-04-01T20:04:38;7.95;;;4.53;;
32946;SDS011;54465;51.230;22.504;2023-04-01T20:14:54;12.50;;;5.03;;
32946;SDS011;54465;51.230;22.504;2023-04-01T20:19:58;9.15;;;5.18;;
32946;SDS011;54465;51.230;22.504;2023-04-01T20:25:10;10.30;;;5.38;;
32946;SDS011;54465;51.230;22.504;2023-04-01T20:40:58;7.30;;;3.97;;
32946;SDS011;54465;51.230;22.504;2023-04-01T20:46:26;7.35;;;4.20;;
32946;SDS011;54465;51.230;22.504;2023-04-01T20:51:30;9.35;;;4.70;;
32946;SDS011;54465;51.230;22.504;2023-04-01T21:07:28;11.07;;;5.32;;
32946;SDS011;54465;51.230;22.504;2023-04-01T21:33:16;10.75;;;5.18;;
32946;SDS011;54465;51.230;22.504;2023-04-01T21:48:59;8.60;;;5.07;;
32946;SDS011;54465;51.230;22.504;2023-04-01T22:09:35;3.08;;;1.75;;
32946;SDS011;54465;51.230;22.504;2023-04-01T22:30:28;2.58;;;1.65;;
32946;SDS011;54465;51.230;22.504;2023-04-01T22:35:40;2.88;;;1.65;;
32946;SDS011;54465;51.230;22.504;2023-04-01T22:41:00;2.20;;;1.50;;
32946;SDS011;54465;51.230;22.504;2023-04-01T22:57:00;6.00;;;1.40;;
32946;SDS011;54465;51.230;22.504;2023-04-01T23:02:06;2.33;;;1.10;;
32946;SDS011;54465;51.230;22.504;2023-04-01T23:12:37;5.53;;;1.33;;
32946;SDS011;54465;51.230;22.504;2023-04-01T23:17:50;1.65;;;1.08;;
32946;SDS011;54465;51.230;22.504;2023-04-01T23:33:41;4.07;;;0.90;;
32946;SDS011;54465;51.230;22.504;2023-04-01T23:38:42;2.35;;;1.30;;
32946;SDS011;54465;51.230;22.504;2023-04-01T23:43:43;2.08;;;1.17;;
32946;SDS011;54465;51.230;22.504;2023-04-01T23:48:45;0.93;;;0.77;;
32946;SDS011;54465;51.230;22.504;2023-04-01T23:53:46;1.77;;;0.95;;
32946;SDS011;54465;51.230;22.504;2023-04-01T23:58:48;2.47;;;1.05;;
